MMMZ/MZT METAR and TAF weather

Enter ICAO airport designator
Station Type Date Time Source
MMMZ METAR 2020/01/27 13:42 UTC NOAA

MMMZ 271342Z 00000KT 12SM SCT040 SCT070 15/15 A3003 RMK 8/570


Station Type Date Time Source
MMMZ Decoded METAR 2020/01/27 13:42 UTC NOAA

Mazatlan / G. Buelna, Mexico (MMMZ) 23-10N 106-16W
Jan 27, 2020 - 08:42 AM EST / 2020.01.27 1342 UTC
Wind: Calm:0
Visibility: 12 mile(s):0
Sky conditions: partly cloudy
Temperature: 59 F (15 C)
Dew Point: 59 F (15 C)
Relative Humidity: 100%
Pressure (altimeter): 30.03 in. Hg (1016 hPa)
ob: MMMZ 271342Z 00000KT 12SM SCT040 SCT070 15/15 A3003 RMK 8/570
cycle: 13

Station Type Date Time Source
MMMZ TAF 2020/01/27 12:28 UTC NOAA

TAF MMMZ 271018Z 2712/2818 04004KT 6SM HZ SKC TX27/2720Z TN15/2712Z
TEMPO 2712/2715 2 1/2SM BR SCT015
FM271800 26010KT P6SM SCT020
FM280600 00000KT P6SM SKC
BECMG 2811/2813 34004KT

Example: see airport list